Norwegian Crown — C6II4 — position and weather

sailwx.info

Track history (hours):
 
Tides and Currents Weather Stations Pressure Air Temp Water Temp Dewpoint Dewpoint Depression Visibility Wind Speed Wind Dir Waves Ship Positions

Norwegian Crown

Operator: Norwegian Cruise Line

Last reported at 2018-Jan-20 22:31 UTC. Time now 2018-Jan-20 22:37 UTC.
Position N 49°31' W 000°12'.

Type: Ship. MMSI: 308785000.

Date/timePositionNaut miles runAvg speedWind from/ knotsBaromVisibWave heightAir tempDewpointWater temp
2018-Jan-20 22:31N 49°31' W 000°12'916.9
2018-Jan-20 22:00N 49°37' W 000°22'917.4
2018-Jan-20 21:30N 49°45' W 000°25'917.9
2018-Jan-20 21:00N 49°54' W 000°29'917.7
2018-Jan-20 20:30N 50°02' W 000°34'917.7
2018-Jan-20 20:00N 50°10' W 000°40'917.2
2018-Jan-20 19:29N 50°18' W 000°48'817.1
2018-Jan-20 18:59N 50°26' W 000°51'817.0
2018-Jan-20 18:31N 50°34' W 000°53'613.0
2018-Jan-20 18:01N 50°40' W 000°57'714.0
2018-Jan-20 17:30N 50°44' W 001°05'816.2
2018-Jan-20 17:00N 50°46' W 001°17'5 9.5
2018-Jan-20 16:30N 50°51' W 001°20'4 8.7
2018-Jan-20 16:00N 50°54' W 001°25'0 0.1
2018-Jan-20 15:30N 50°54' W 001°25'0 0.0
2018-Jan-20 14:57N 50°54' W 001°25'0 0.0
2018-Jan-20 14:27N 50°54' W 001°25'0 0.0
2018-Jan-20 14:00N 50°54' W 001°25'0 0.0
2018-Jan-20 13:30N 50°54' W 001°25'0 0.0
2018-Jan-20 13:00N 50°54' W 001°25'0 0.0
2018-Jan-20 12:30N 50°54' W 001°25'0 0.0
2018-Jan-20 12:00N 50°54' W 001°25'0 0.0
2018-Jan-20 11:30N 50°54' W 001°25'0 0.0
2018-Jan-20 11:00N 50°54' W 001°25'0 0.0
2018-Jan-20 10:30N 50°54' W 001°25'0 0.0
2018-Jan-20 10:00N 50°54' W 001°25'0 0.0
2018-Jan-20 09:30N 50°54' W 001°25'0 0.0
2018-Jan-20 09:00N 50°54' W 001°25'0 0.0
2018-Jan-20 08:30N 50°54' W 001°25'0 0.0
2018-Jan-20 08:00N 50°54' W 001°25'0 0.0
2018-Jan-20 07:30N 50°54' W 001°25'0 0.0
2018-Jan-20 07:00N 50°54' W 001°25'0 0.0
2018-Jan-20 06:30N 50°54' W 001°25'0 0.0
2018-Jan-20 06:00N 50°54' W 001°25'0 0.0
2018-Jan-20 05:27N 50°54' W 001°25'0 0.1
2018-Jan-20 05:00N 50°54' W 001°25'3 6.0
2018-Jan-20 04:30N 50°52' W 001°22'4 8.8
2018-Jan-20 04:00N 50°48' W 001°18'5 9.2
2018-Jan-20 03:31N 50°46' W 001°11'816.5
2018-Jan-20 03:00N 50°43' W 000°59'510.2
2018-Jan-20 02:31N 50°38' W 000°58'4 8.9
2018-Jan-20 02:00N 50°33' W 000°60'5 9.2
2018-Jan-20 01:31N 50°32' W 001°06'8 9.5
2018-Jan-20 00:39N 50°29' W 001°19'1710.8
2018-Jan-19 23:06N 50°25' W 001°44'213.3
2018-Jan-19 22:57N 50°25' W 001°47'2313.8
2018-Jan-19 21:16N 50°16' W 002°21'413.8
2018-Jan-19 20:58N 50°14' W 002°27'613.5
2018-Jan-19 20:30N 50°12' W 002°36'713.1
2018-Jan-19 20:00N 50°10' W 002°46'612.8
2018-Jan-19 19:30N 50°08' W 002°55'612.5
2018-Jan-19 19:00N 50°05' W 003°04'612.3
2018-Jan-19 18:30N 50°03' W 003°12'612.0
2018-Jan-19 18:00N 49°60' W 003°21'611.6
2018-Jan-19 17:30N 49°57' W 003°29'1111.4
2018-Jan-19 16:34N 49°53' W 003°44'111.0
2018-Jan-19 16:30N 49°52' W 003°45'1810.5
2018-Jan-19 14:50N 49°42' W 004°07'54 9.2
2018-Jan-19 08:57N 49°01' W 004°60'5 9.7
2018-Jan-19 08:29N 48°57' W 005°04'610.4
2018-Jan-19 07:57N 48°55' W 005°12'510.4
2018-Jan-19 07:28N 48°53' W 005°18'2313.6
2018-Jan-19 05:48N 48°37' W 005°43'1616.3
2018-Jan-19 04:48N 48°23' W 005°55'  
Track history (hours):
 
Tides and Currents Weather Stations Pressure Air Temp Water Temp Dewpoint Dewpoint Depression Visibility Wind Speed Wind Dir Waves Ship Positions

Norwegian Crown

Operator: Norwegian Cruise Line

Last reported at 2018-Jan-20 22:31 UTC. Time now 2018-Jan-20 22:37 UTC.
Position N 49°31' W 000°12'.

Type: Ship. MMSI: 308785000.

Date/timePositionNaut miles runAvg speedWind from/ knotsBaromVisibWave heightAir tempDewpointWater temp
2018-Jan-20 22:31N 49°31' W 000°12'916.9
2018-Jan-20 22:00N 49°37' W 000°22'917.4
2018-Jan-20 21:30N 49°45' W 000°25'917.9
2018-Jan-20 21:00N 49°54' W 000°29'917.7
2018-Jan-20 20:30N 50°02' W 000°34'917.7
2018-Jan-20 20:00N 50°10' W 000°40'917.2
2018-Jan-20 19:29N 50°18' W 000°48'817.1
2018-Jan-20 18:59N 50°26' W 000°51'817.0
2018-Jan-20 18:31N 50°34' W 000°53'613.0
2018-Jan-20 18:01N 50°40' W 000°57'714.0
2018-Jan-20 17:30N 50°44' W 001°05'816.2
2018-Jan-20 17:00N 50°46' W 001°17'5 9.5
2018-Jan-20 16:30N 50°51' W 001°20'4 8.7
2018-Jan-20 16:00N 50°54' W 001°25'0 0.1
2018-Jan-20 15:30N 50°54' W 001°25'0 0.0
2018-Jan-20 14:57N 50°54' W 001°25'0 0.0
2018-Jan-20 14:27N 50°54' W 001°25'0 0.0
2018-Jan-20 14:00N 50°54' W 001°25'0 0.0
2018-Jan-20 13:30N 50°54' W 001°25'0 0.0
2018-Jan-20 13:00N 50°54' W 001°25'0 0.0
2018-Jan-20 12:30N 50°54' W 001°25'0 0.0
2018-Jan-20 12:00N 50°54' W 001°25'0 0.0
2018-Jan-20 11:30N 50°54' W 001°25'0 0.0
2018-Jan-20 11:00N 50°54' W 001°25'0 0.0
2018-Jan-20 10:30N 50°54' W 001°25'0 0.0
2018-Jan-20 10:00N 50°54' W 001°25'0 0.0
2018-Jan-20 09:30N 50°54' W 001°25'0 0.0
2018-Jan-20 09:00N 50°54' W 001°25'0 0.0
2018-Jan-20 08:30N 50°54' W 001°25'0 0.0
2018-Jan-20 08:00N 50°54' W 001°25'0 0.0
2018-Jan-20 07:30N 50°54' W 001°25'0 0.0
2018-Jan-20 07:00N 50°54' W 001°25'0 0.0
2018-Jan-20 06:30N 50°54' W 001°25'0 0.0
2018-Jan-20 06:00N 50°54' W 001°25'0 0.0
2018-Jan-20 05:27N 50°54' W 001°25'0 0.1
2018-Jan-20 05:00N 50°54' W 001°25'3 6.0
2018-Jan-20 04:30N 50°52' W 001°22'4 8.8
2018-Jan-20 04:00N 50°48' W 001°18'5 9.2
2018-Jan-20 03:31N 50°46' W 001°11'816.5
2018-Jan-20 03:00N 50°43' W 000°59'510.2
2018-Jan-20 02:31N 50°38' W 000°58'4 8.9
2018-Jan-20 02:00N 50°33' W 000°60'5 9.2
2018-Jan-20 01:31N 50°32' W 001°06'8 9.5
2018-Jan-20 00:39N 50°29' W 001°19'1710.8
2018-Jan-19 23:06N 50°25' W 001°44'213.3
2018-Jan-19 22:57N 50°25' W 001°47'2313.8
2018-Jan-19 21:16N 50°16' W 002°21'413.8
2018-Jan-19 20:58N 50°14' W 002°27'613.5
2018-Jan-19 20:30N 50°12' W 002°36'713.1
2018-Jan-19 20:00N 50°10' W 002°46'612.8
2018-Jan-19 19:30N 50°08' W 002°55'612.5
2018-Jan-19 19:00N 50°05' W 003°04'612.3
2018-Jan-19 18:30N 50°03' W 003°12'612.0
2018-Jan-19 18:00N 49°60' W 003°21'611.6
2018-Jan-19 17:30N 49°57' W 003°29'1111.4
2018-Jan-19 16:34N 49°53' W 003°44'111.0
2018-Jan-19 16:30N 49°52' W 003°45'1810.5
2018-Jan-19 14:50N 49°42' W 004°07'54 9.2
2018-Jan-19 08:57N 49°01' W 004°60'5 9.7
2018-Jan-19 08:29N 48°57' W 005°04'610.4
2018-Jan-19 07:57N 48°55' W 005°12'510.4
2018-Jan-19 07:28N 48°53' W 005°18'2313.6
2018-Jan-19 05:48N 48°37' W 005°43'1616.3
2018-Jan-19 04:48N 48°23' W 005°55'  

Dump ship's entire track history